aviador You're here:

KRWF Decoded Metar

REDWOOD FALL in MN, USA
Report Time2018-01-23 03:53:00
UTC Time2018-01-23 04:04:04
Flight Rules mvfr MVFR
Wind340° at 10 Gusting to 23 kt
W.Decomp.*RWY 30: 8.1 kt HW 5.9 kt RCW
RWY 05: 2.8 kt HW 9.6 kt LCW
W.Rank340° ranks 13
Current wind is above 340° avg. (8.4)
Visibility9999 m
Phenomena:N/A
Clouds:Overcast 018 Hf
Expected CloudBase > 1,600 ft AGL from Temp-Dew spread
Ceiling1,800 ft
Temp-2°C (ISA -15)
Dew Point-6°C (74% RH)
AAT-8.3°C
QNH1011 hPa
Density Alt-686 ft
Elevation1,020 ft
Report Wrong Elevation
Raw Report
METAR KRWF 230353Z AUTO 34010G23KT 10SM OVC018 M02/M06 A2986 RMK AO2
SLP125 T10221056=

Extra information for KRWF:More info

Metar Taf Metar & Taf Last 4 Metars F.Rules Stats Wind Profile Meteogram Temp Stats Airport Information Weather charts Add Link Nearby VenuesMetar ALERT Operation Metar Decoded Social comments

AIRNAV info for KRWF